createdAt,value
2017-10-13T00:01:22.375Z,90.67
2017-10-13T00:03:50.758Z,90.38
2017-10-13T00:06:20.041Z,90.42
2017-10-13T00:08:48.694Z,90.78
2017-10-13T00:11:17.117Z,90.77
2017-10-13T00:13:48.902Z,90.78
2017-10-13T00:16:17.241Z,90.72
2017-10-13T00:18:45.624Z,90.65
2017-10-13T00:21:17.095Z,90.56
2017-10-13T00:23:47.347Z,90.53
2017-10-13T00:26:15.693Z,90.91
2017-10-13T00:28:44.056Z,90.57
2017-10-13T00:31:15.837Z,90.64
2017-10-13T00:33:44.196Z,90.44
2017-10-13T00:36:12.589Z,90.56
2017-10-13T00:38:40.989Z,90.45
2017-10-13T00:41:10.261Z,90.58
2017-10-13T00:43:39.810Z,91.05
2017-10-13T00:46:08.250Z,90.65
2017-10-13T00:48:36.648Z,90.73
2017-10-13T00:51:05.034Z,90.72
2017-10-13T00:53:36.489Z,90.89
2017-10-13T00:56:09.450Z,90.77
2017-10-13T00:58:41.512Z,90.46
2017-10-13T01:01:09.919Z,90.70
2017-10-13T01:03:38.288Z,90.96
2017-10-13T01:06:06.708Z,91.01
2017-10-13T01:08:35.956Z,91.05
2017-10-13T01:11:08.946Z,90.74
2017-10-13T01:13:38.137Z,90.69
2017-10-13T01:16:06.653Z,90.76
2017-10-13T01:18:35.022Z,90.61
2017-10-13T01:21:03.385Z,90.74
2017-10-13T01:23:36.389Z,90.40
2017-10-13T01:26:04.752Z,90.94
2017-10-13T01:28:33.420Z,91.01
2017-10-13T01:31:05.503Z,91.02
2017-10-13T01:33:34.160Z,90.66
2017-10-13T01:36:04.116Z,90.58
2017-10-13T01:38:32.545Z,91.25
2017-10-13T01:41:01.807Z,91.41
2017-10-13T01:43:30.155Z,91.33
2017-10-13T01:45:58.565Z,91.59
2017-10-13T01:48:26.940Z,91.13
2017-10-13T01:50:55.333Z,90.86
2017-10-13T01:53:27.377Z,90.55
2017-10-13T01:55:57.632Z,90.62
2017-10-13T01:58:25.984Z,90.66
2017-10-13T02:00:54.365Z,90.63
2017-10-13T02:03:22.832Z,90.71
2017-10-13T02:05:53.282Z,90.70
2017-10-13T02:08:34.174Z,90.95
2017-10-13T02:11:02.653Z,90.71
2017-10-13T02:13:31.015Z,90.26
2017-10-13T02:15:59.371Z,90.24
2017-10-13T02:18:27.780Z,90.15
2017-10-13T02:20:59.552Z,90.18
2017-10-13T02:23:27.908Z,90.14
2017-10-13T02:25:56.283Z,90.18
2017-10-13T02:28:26.506Z,90.94
2017-10-13T02:30:54.914Z,91.14
2017-10-13T02:33:23.269Z,91.72
2017-10-13T02:35:53.520Z,91.89
2017-10-13T02:38:21.876Z,91.83
2017-10-13T02:40:50.252Z,91.07
2017-10-13T02:43:23.568Z,90.74
2017-10-13T02:45:51.919Z,90.49
2017-10-13T02:48:20.338Z,90.79
2017-10-13T02:50:51.760Z,90.55
2017-10-13T02:53:23.231Z,90.19
2017-10-13T02:55:54.971Z,90.47
2017-10-13T02:58:27.316Z,90.57
2017-10-13T03:00:55.714Z,90.97
2017-10-13T03:03:25.962Z,90.42
2017-10-13T03:05:54.350Z,90.40
2017-10-13T03:08:22.826Z,90.57
2017-10-13T03:10:53.238Z,90.12
2017-10-13T03:13:21.607Z,90.51
2017-10-13T03:15:50.941Z,90.51
2017-10-13T03:18:19.297Z,90.52
2017-10-13T03:20:47.679Z,90.19
2017-10-13T03:23:20.675Z,90.21
2017-10-13T03:25:53.049Z,90.13
2017-10-13T03:28:21.468Z,89.63
2017-10-13T03:30:49.834Z,89.66
2017-10-13T03:33:18.208Z,90.13
2017-10-13T03:35:49.635Z,89.68
2017-10-13T03:38:18.039Z,89.59
2017-10-13T03:40:46.390Z,89.55
2017-10-13T03:43:14.764Z,89.43
2017-10-13T03:45:43.188Z,89.35
2017-10-13T03:48:11.541Z,89.19
2017-10-13T03:50:40.912Z,88.84
2017-10-13T03:53:09.204Z,88.95
2017-10-13T03:55:38.242Z,88.96
2017-10-13T03:58:06.553Z,88.91
2017-10-13T04:00:35.587Z,89.09
2017-10-13T04:03:03.973Z,89.24
2017-10-13T04:05:32.355Z,89.61
2017-10-13T04:08:00.739Z,89.94
2017-10-13T04:10:29.163Z,89.82
2017-10-13T04:12:58.423Z,90.13
2017-10-13T04:15:27.059Z,90.07
2017-10-13T04:17:55.811Z,90.50
2017-10-13T04:20:24.148Z,90.05
2017-10-13T04:22:52.454Z,90.07
2017-10-13T04:25:20.915Z,90.25
2017-10-13T04:27:49.315Z,90.05
2017-10-13T04:30:17.678Z,90.24
2017-10-13T04:32:45.963Z,90.53
2017-10-13T04:35:14.232Z,90.57
2017-10-13T04:37:43.298Z,90.69
2017-10-13T04:40:11.571Z,90.66
2017-10-13T04:42:40.678Z,90.91
2017-10-13T04:45:08.976Z,90.52
2017-10-13T04:47:37.249Z,91.28
2017-10-13T04:50:05.533Z,91.79
2017-10-13T04:52:33.814Z,92.29
2017-10-13T04:55:02.097Z,91.68
2017-10-13T04:57:31.620Z,92.08
2017-10-13T04:59:59.881Z,91.75
2017-10-13T05:02:28.179Z,91.29
2017-10-13T05:04:56.552Z,91.84
2017-10-13T05:07:24.806Z,91.74
2017-10-13T05:09:53.087Z,91.83
2017-10-13T05:12:21.376Z,91.82
2017-10-13T05:14:49.674Z,91.33
2017-10-13T05:17:17.955Z,92.01
2017-10-13T05:19:46.235Z,92.29
2017-10-13T05:22:14.519Z,91.80
2017-10-13T05:24:42.828Z,91.58
2017-10-13T05:27:11.103Z,91.37
2017-10-13T05:29:40.135Z,91.89
2017-10-13T05:32:08.430Z,91.49
2017-10-13T05:34:36.678Z,92.22
2017-10-13T05:37:07.022Z,92.18
2017-10-13T05:39:35.374Z,92.27
2017-10-13T05:42:03.617Z,92.54
2017-10-13T05:44:31.908Z,92.56
2017-10-13T05:47:00.947Z,92.26
2017-10-13T05:49:29.617Z,92.16
2017-10-13T05:51:57.871Z,92.18
2017-10-13T05:54:26.140Z,92.44
2017-10-13T05:56:54.419Z,92.22
2017-10-13T05:59:23.452Z,92.54
2017-10-13T06:01:53.061Z,92.52
2017-10-13T06:04:21.329Z,92.53
2017-10-13T06:06:49.616Z,92.37
2017-10-13T06:09:17.889Z,92.70
2017-10-13T06:11:46.160Z,93.00
2017-10-13T06:14:14.440Z,93.05
2017-10-13T06:16:42.739Z,92.80
2017-10-13T06:19:11.003Z,92.58
2017-10-13T06:21:39.281Z,92.53
2017-10-13T06:24:07.554Z,92.64
2017-10-13T06:26:35.837Z,92.49
2017-10-13T06:29:05.170Z,92.34
2017-10-13T06:31:33.439Z,92.31
2017-10-13T06:34:01.716Z,92.62
2017-10-13T06:36:31.309Z,92.77
2017-10-13T06:38:59.589Z,92.73
2017-10-13T06:41:27.847Z,92.74
2017-10-13T06:43:56.128Z,92.71
2017-10-13T06:46:24.419Z,93.00
2017-10-13T06:48:52.685Z,92.90
2017-10-13T06:51:20.983Z,93.09
2017-10-13T06:53:49.252Z,93.05
2017-10-13T06:56:17.531Z,93.34
2017-10-13T06:58:45.841Z,93.28
2017-10-13T07:01:14.793Z,93.09
2017-10-13T07:03:43.644Z,92.95
2017-10-13T07:06:13.895Z,93.05
2017-10-13T07:08:43.417Z,93.23
2017-10-13T07:11:12.510Z,93.14
2017-10-13T07:13:42.090Z,93.07
2017-10-13T07:16:11.070Z,93.04
2017-10-13T07:18:40.397Z,93.12
2017-10-13T07:21:09.450Z,93.11
2017-10-13T07:23:38.208Z,93.03
2017-10-13T07:26:07.267Z,93.02
2017-10-13T07:28:36.268Z,92.87
2017-10-13T07:31:06.297Z,92.66
2017-10-13T07:33:35.312Z,92.58
2017-10-13T07:36:04.381Z,92.50
2017-10-13T07:38:33.319Z,92.36
2017-10-13T07:41:02.211Z,92.35
2017-10-13T07:43:31.208Z,92.19
2017-10-13T07:46:00.065Z,91.87
2017-10-13T07:48:28.732Z,91.66
2017-10-13T07:50:59.054Z,91.11
2017-10-13T07:53:28.371Z,90.95
2017-10-13T07:55:58.193Z,90.73
2017-10-13T07:58:27.507Z,90.36
2017-10-13T08:00:56.247Z,90.25
2017-10-13T08:03:25.369Z,90.41
2017-10-13T08:05:55.240Z,90.29
2017-10-13T08:08:24.510Z,89.51
2017-10-13T08:10:53.511Z,89.42
2017-10-13T08:13:22.858Z,89.49
2017-10-13T08:15:52.435Z,89.37
2017-10-13T08:18:21.983Z,89.32
2017-10-13T08:20:50.688Z,89.23
2017-10-13T08:23:19.954Z,89.19
2017-10-13T08:25:48.921Z,88.77
2017-10-13T08:28:17.504Z,88.49
2017-10-13T08:30:47.232Z,88.50
2017-10-13T08:33:16.606Z,88.41
2017-10-13T08:35:45.358Z,87.91
2017-10-13T08:38:14.222Z,87.66
2017-10-13T08:40:43.202Z,87.22
2017-10-13T08:43:12.110Z,87.22
2017-10-13T08:45:42.568Z,86.88
2017-10-13T08:48:11.370Z,87.12
2017-10-13T08:50:41.885Z,87.33
2017-10-13T08:53:10.169Z,87.04
2017-10-13T08:55:38.437Z,86.85
2017-10-13T08:58:07.098Z,86.27
2017-10-13T09:00:36.161Z,86.37
2017-10-13T09:03:04.976Z,86.50
2017-10-13T09:05:34.608Z,86.24
2017-10-13T09:08:04.981Z,86.09
2017-10-13T09:10:34.498Z,85.86
2017-10-13T09:13:03.374Z,85.90
2017-10-13T09:15:32.929Z,85.82
2017-10-13T09:18:01.955Z,85.82
2017-10-13T09:20:31.484Z,85.77
2017-10-13T09:23:06.170Z,85.90
2017-10-13T09:25:36.034Z,86.24
2017-10-13T09:28:05.091Z,85.97
2017-10-13T09:30:34.777Z,86.04
2017-10-13T09:33:03.990Z,85.86
2017-10-13T09:35:32.783Z,85.53
2017-10-13T09:38:02.181Z,85.72
2017-10-13T09:40:31.465Z,85.67
2017-10-13T09:43:00.535Z,85.32
2017-10-13T09:45:29.449Z,84.91
2017-10-13T09:47:58.787Z,84.48
2017-10-13T09:50:27.981Z,83.88
2017-10-13T09:52:58.589Z,83.07
2017-10-13T09:55:27.067Z,83.31
2017-10-13T09:57:56.162Z,83.28
2017-10-13T10:00:25.370Z,82.74
2017-10-13T10:02:55.483Z,82.04
2017-10-13T10:05:25.191Z,82.23
2017-10-13T10:07:54.333Z,82.77
2017-10-13T10:10:23.597Z,81.92
2017-10-13T10:12:53.809Z,82.21
2017-10-13T10:15:22.186Z,82.03
2017-10-13T10:17:51.003Z,81.92
2017-10-13T10:20:20.792Z,81.54
2017-10-13T10:22:50.199Z,81.59
2017-10-13T10:25:19.181Z,81.36
2017-10-13T10:27:49.407Z,81.38
2017-10-13T10:30:18.136Z,81.24
2017-10-13T10:32:47.203Z,81.64
2017-10-13T10:35:16.920Z,81.85
2017-10-13T10:37:47.744Z,81.39
2017-10-13T10:40:17.005Z,81.11
2017-10-13T10:42:46.033Z,80.94
2017-10-13T10:45:15.414Z,80.18
2017-10-13T10:47:44.338Z,80.07
2017-10-13T10:50:12.863Z,79.87
2017-10-13T10:52:41.315Z,79.23
2017-10-13T10:55:10.349Z,78.73
2017-10-13T10:57:38.817Z,78.76
2017-10-13T11:00:07.200Z,78.59
2017-10-13T11:02:36.533Z,78.92
2017-10-13T11:05:06.736Z,78.59
2017-10-13T11:07:37.889Z,78.90
2017-10-13T11:10:06.248Z,79.41
2017-10-13T11:12:35.905Z,79.66
2017-10-13T11:15:05.066Z,80.02
2017-10-13T11:17:35.868Z,80.61
2017-10-13T11:20:04.310Z,80.40
2017-10-13T11:22:32.609Z,80.78
2017-10-13T11:25:00.916Z,80.68
2017-10-13T11:27:30.359Z,80.58
2017-10-13T11:29:59.916Z,80.70
2017-10-13T11:32:29.922Z,79.51
2017-10-13T11:34:59.108Z,79.57
2017-10-13T11:37:29.571Z,79.69
2017-10-13T11:39:59.225Z,79.48
2017-10-13T11:42:29.333Z,79.31
2017-10-13T11:44:58.849Z,79.45
2017-10-13T11:47:31.208Z,79.39
2017-10-13T11:50:01.706Z,79.18
2017-10-13T11:52:29.993Z,79.14
2017-10-13T11:54:58.361Z,79.39
2017-10-13T11:57:27.344Z,79.18
2017-10-13T11:59:58.113Z,79.29
2017-10-13T12:02:26.902Z,78.98
2017-10-13T12:04:57.279Z,78.51
2017-10-13T12:07:25.944Z,78.57
2017-10-13T12:09:55.598Z,78.55
2017-10-13T12:12:23.957Z,78.74
2017-10-13T12:14:53.493Z,78.66
2017-10-13T12:17:21.790Z,78.48
2017-10-13T12:19:50.157Z,78.37
2017-10-13T12:22:18.475Z,78.08
2017-10-13T12:24:46.813Z,77.96
2017-10-13T12:27:15.465Z,77.33
2017-10-13T12:29:43.849Z,77.30
2017-10-13T12:32:13.445Z,77.17
2017-10-13T12:34:42.932Z,77.75
2017-10-13T12:37:11.868Z,77.72
2017-10-13T12:39:41.880Z,78.13
2017-10-13T12:42:13.109Z,78.12
2017-10-13T12:44:42.715Z,78.05
2017-10-13T12:47:12.751Z,77.72
2017-10-13T12:49:43.281Z,77.65
2017-10-13T12:52:12.210Z,78.45
2017-10-13T12:54:42.283Z,77.83
2017-10-13T12:57:12.444Z,77.90
2017-10-13T12:59:41.114Z,77.77
2017-10-13T13:02:10.760Z,77.68
2017-10-13T13:04:40.156Z,77.45
2017-10-13T13:07:09.308Z,77.44
2017-10-13T13:09:37.602Z,77.59
2017-10-13T13:12:06.683Z,77.56
2017-10-13T13:14:35.706Z,77.99
2017-10-13T13:17:04.689Z,77.93
2017-10-13T13:19:33.515Z,78.01
2017-10-13T13:22:03.498Z,77.79
2017-10-13T13:24:33.626Z,77.42
2017-10-13T13:27:03.043Z,77.47
2017-10-13T13:29:31.316Z,77.24
2017-10-13T13:32:00.361Z,77.72
2017-10-13T13:34:29.746Z,76.38
2017-10-13T13:36:59.810Z,76.27
2017-10-13T13:39:28.906Z,76.34
2017-10-13T13:41:58.528Z,75.49
2017-10-13T13:44:27.419Z,75.77
2017-10-13T13:46:57.637Z,75.76
2017-10-13T13:49:26.645Z,74.51
2017-10-13T13:51:56.023Z,74.64
2017-10-13T13:54:24.576Z,74.88
2017-10-13T13:56:53.879Z,75.35
2017-10-13T13:59:23.746Z,75.71
2017-10-13T14:01:53.630Z,75.90
2017-10-13T14:04:23.269Z,76.30
2017-10-13T14:06:52.066Z,76.07
2017-10-13T14:09:20.430Z,76.01
2017-10-13T14:11:49.945Z,76.01
2017-10-13T14:14:19.125Z,76.13
2017-10-13T14:16:48.451Z,76.59
2017-10-13T14:19:17.654Z,76.86
2017-10-13T14:21:46.662Z,77.19
2017-10-13T14:24:15.674Z,77.89
2017-10-13T14:26:45.761Z,77.84
2017-10-13T14:29:14.830Z,78.07
2017-10-13T14:31:44.393Z,77.66
2017-10-13T14:34:13.514Z,77.77
2017-10-13T14:36:44.131Z,77.09
2017-10-13T14:39:13.377Z,76.53
2017-10-13T14:41:42.700Z,75.98
2017-10-13T14:44:11.790Z,75.18
2017-10-13T14:46:40.211Z,75.34
2017-10-13T14:49:08.832Z,75.56
2017-10-13T14:51:37.985Z,75.33
2017-10-13T14:54:08.233Z,75.30
2017-10-13T14:56:37.110Z,75.54
2017-10-13T14:59:06.363Z,76.97
2017-10-13T15:01:35.371Z,74.14
2017-10-13T15:04:04.871Z,72.97
2017-10-13T15:06:33.255Z,72.04
2017-10-13T15:09:02.215Z,71.33
2017-10-13T15:11:31.320Z,69.68
2017-10-13T15:13:59.667Z,69.60
2017-10-13T15:16:28.514Z,67.69
2017-10-13T15:18:57.211Z,67.39
2017-10-13T15:21:25.548Z,67.22
2017-10-13T15:23:54.213Z,67.43
2017-10-13T15:26:29.944Z,67.50
2017-10-13T15:29:04.705Z,66.87
2017-10-13T15:31:39.222Z,66.59
2017-10-13T15:34:13.884Z,67.43
2017-10-13T15:36:42.612Z,68.49
2017-10-13T15:39:16.444Z,67.70
2017-10-13T15:41:50.743Z,67.74
2017-10-13T15:44:24.784Z,68.35
2017-10-13T15:46:58.641Z,70.41
2017-10-13T15:49:32.456Z,71.54
2017-10-13T15:52:06.339Z,71.72
2017-10-13T15:54:40.524Z,72.08
2017-10-13T15:57:08.802Z,72.77
2017-10-13T15:59:37.081Z,73.30
2017-10-13T16:02:05.409Z,73.67
2017-10-13T16:04:37.171Z,74.40
2017-10-13T16:07:05.695Z,74.64
2017-10-13T16:09:33.991Z,75.01
2017-10-13T16:12:02.273Z,75.88
2017-10-13T16:14:30.598Z,76.58
2017-10-13T16:16:58.944Z,77.73
2017-10-13T16:19:27.250Z,78.65
2017-10-13T16:21:55.541Z,79.04
2017-10-13T16:24:24.095Z,79.49
2017-10-13T16:26:52.355Z,79.51
2017-10-13T16:29:20.640Z,80.03
2017-10-13T16:31:48.941Z,80.28
2017-10-13T16:34:17.906Z,80.60
2017-10-13T16:36:46.246Z,81.10
2017-10-13T16:39:14.919Z,81.32
2017-10-13T16:41:43.579Z,81.54
2017-10-13T16:44:12.849Z,81.90
2017-10-13T16:46:41.135Z,82.22
2017-10-13T16:49:09.636Z,82.49
2017-10-13T16:51:38.161Z,82.74
2017-10-13T16:54:06.544Z,83.19
2017-10-13T16:56:35.597Z,82.94
2017-10-13T16:59:03.887Z,83.29
2017-10-13T17:01:32.153Z,83.45
2017-10-13T17:04:00.421Z,83.77
2017-10-13T17:06:29.114Z,84.43
2017-10-13T17:08:58.101Z,84.15
2017-10-13T17:11:26.813Z,83.51
2017-10-13T17:13:55.220Z,83.06
2017-10-13T17:16:24.455Z,83.23
2017-10-13T17:18:52.727Z,83.86
2017-10-13T17:21:21.013Z,84.31
2017-10-13T17:23:50.165Z,84.54
2017-10-13T17:26:18.506Z,85.58
2017-10-13T17:28:46.787Z,85.80
2017-10-13T17:31:15.063Z,85.62
2017-10-13T17:33:43.355Z,85.41
2017-10-13T17:36:11.644Z,84.83
2017-10-13T17:38:39.941Z,84.15
2017-10-13T17:41:08.581Z,84.25
2017-10-13T17:43:36.845Z,85.39
2017-10-13T17:46:05.183Z,84.75
2017-10-13T17:48:34.340Z,84.97
2017-10-13T17:51:02.667Z,86.09
2017-10-13T17:53:30.944Z,85.14
2017-10-13T17:56:00.017Z,84.90
2017-10-13T17:58:28.325Z,85.29
2017-10-13T18:00:56.619Z,86.11
2017-10-13T18:03:24.928Z,86.20
2017-10-13T18:05:53.345Z,86.28
2017-10-13T18:08:22.425Z,85.76
2017-10-13T18:10:50.700Z,86.00
2017-10-13T18:13:19.017Z,86.71
2017-10-13T18:15:47.319Z,87.31
2017-10-13T18:18:15.646Z,86.84
2017-10-13T18:20:43.977Z,87.10
2017-10-13T18:23:12.319Z,88.09
2017-10-13T18:25:41.790Z,87.87
2017-10-13T18:28:10.241Z,86.67
2017-10-13T18:30:38.665Z,86.18
2017-10-13T18:33:07.020Z,87.73
2017-10-13T18:35:35.350Z,87.66
2017-10-13T18:38:03.689Z,87.47
2017-10-13T18:40:32.043Z,87.38
2017-10-13T18:43:00.693Z,86.74
2017-10-13T18:45:29.029Z,86.95
2017-10-13T18:47:57.444Z,86.91
2017-10-13T18:50:25.791Z,86.79
2017-10-13T18:52:54.164Z,86.49
2017-10-13T18:55:23.466Z,86.29
2017-10-13T18:57:51.797Z,86.14
2017-10-13T19:00:20.594Z,86.53
2017-10-13T19:02:50.145Z,87.90
2017-10-13T19:05:18.491Z,87.48
2017-10-13T19:07:46.877Z,87.11
2017-10-13T19:10:15.211Z,88.01
2017-10-13T19:12:44.382Z,87.54
2017-10-13T19:15:12.726Z,87.41
2017-10-13T19:17:41.070Z,87.79
2017-10-13T19:20:09.409Z,88.78
2017-10-13T19:22:37.747Z,88.80
2017-10-13T19:25:07.107Z,88.50
2017-10-13T19:27:35.447Z,88.24
2017-10-13T19:30:04.445Z,87.71
2017-10-13T19:32:32.782Z,87.65
2017-10-13T19:35:01.180Z,88.86
2017-10-13T19:37:30.292Z,88.27
2017-10-13T19:39:58.617Z,88.17
2017-10-13T19:42:26.990Z,88.60
2017-10-13T19:44:55.347Z,89.50
2017-10-13T19:47:23.677Z,89.67
2017-10-13T19:49:52.079Z,89.16
2017-10-13T19:52:21.193Z,88.66
2017-10-13T19:54:50.390Z,88.24
2017-10-13T19:57:18.776Z,87.78
2017-10-13T19:59:51.245Z,87.36
2017-10-13T20:02:20.504Z,87.28
2017-10-13T20:04:48.871Z,87.85
2017-10-13T20:07:20.193Z,87.27
2017-10-13T20:09:48.682Z,87.42
2017-10-13T20:12:17.088Z,87.52
2017-10-13T20:14:45.447Z,86.91
2017-10-13T20:17:13.806Z,87.17
2017-10-13T20:19:43.104Z,87.14
2017-10-13T20:22:14.556Z,87.52
2017-10-13T20:24:45.110Z,87.23
2017-10-13T20:27:14.673Z,87.21
2017-10-13T20:29:44.241Z,87.71
2017-10-13T20:32:12.649Z,87.30
2017-10-13T20:34:41.767Z,86.70
2017-10-13T20:37:10.134Z,86.75
2017-10-13T20:39:39.260Z,87.41
2017-10-13T20:42:07.754Z,88.20
2017-10-13T20:44:38.324Z,87.99
2017-10-13T20:47:08.161Z,87.91
2017-10-13T20:49:37.476Z,87.59
2017-10-13T20:52:05.861Z,87.67
2017-10-13T20:54:34.267Z,88.44
2017-10-13T20:57:07.523Z,88.18
2017-10-13T20:59:36.891Z,87.38
2017-10-13T21:02:05.248Z,87.43
2017-10-13T21:04:33.610Z,87.90
2017-10-13T21:07:01.980Z,87.19
2017-10-13T21:09:30.349Z,87.29
2017-10-13T21:11:58.737Z,86.98
2017-10-13T21:14:29.258Z,87.04
2017-10-13T21:16:57.636Z,87.62
2017-10-13T21:19:27.985Z,87.45
2017-10-13T21:21:57.494Z,87.31
2017-10-13T21:24:27.992Z,87.39
2017-10-13T21:26:57.311Z,86.74
2017-10-13T21:29:26.623Z,87.49
2017-10-13T21:31:54.985Z,88.12
2017-10-13T21:34:24.302Z,87.72
2017-10-13T21:36:52.656Z,88.15
2017-10-13T21:39:21.991Z,87.65
2017-10-13T21:41:52.530Z,87.38
2017-10-13T21:44:21.808Z,87.34
2017-10-13T21:46:54.163Z,87.29
2017-10-13T21:49:23.493Z,87.12
2017-10-13T21:51:51.854Z,87.36
2017-10-13T21:54:21.145Z,87.44
2017-10-13T21:56:50.474Z,87.64
2017-10-13T21:59:19.800Z,87.71
2017-10-13T22:01:53.699Z,87.60
2017-10-13T22:04:23.690Z,87.80
2017-10-13T22:06:54.890Z,87.93
2017-10-13T22:09:23.423Z,87.20
2017-10-13T22:11:51.801Z,86.89
2017-10-13T22:14:21.135Z,87.19
2017-10-13T22:16:49.471Z,87.50
2017-10-13T22:19:22.209Z,88.16
2017-10-13T22:21:50.545Z,87.75
2017-10-13T22:24:21.465Z,87.17
2017-10-13T22:26:50.659Z,87.18
2017-10-13T22:29:24.039Z,87.78
2017-10-13T22:31:53.584Z,87.53
2017-10-13T22:34:22.917Z,88.25
2017-10-13T22:36:53.421Z,88.47
2017-10-13T22:39:22.752Z,87.97
2017-10-13T22:41:54.795Z,88.18
2017-10-13T22:44:23.149Z,88.16
2017-10-13T22:46:52.857Z,87.80
2017-10-13T22:49:22.074Z,88.56
2017-10-13T22:51:51.352Z,87.86
2017-10-13T22:54:19.718Z,87.76
2017-10-13T22:56:48.947Z,87.92
2017-10-13T22:59:17.446Z,87.27
2017-10-13T23:01:45.825Z,87.47
2017-10-13T23:04:14.193Z,87.45
2017-10-13T23:06:43.516Z,88.44
2017-10-13T23:09:14.000Z,88.97
2017-10-13T23:11:42.412Z,87.67
2017-10-13T23:14:12.912Z,87.06
2017-10-13T23:16:42.351Z,87.63
2017-10-13T23:19:10.682Z,88.33
2017-10-13T23:21:40.222Z,88.13
2017-10-13T23:24:09.580Z,87.51
2017-10-13T23:26:38.865Z,88.35
2017-10-13T23:29:08.162Z,88.04
2017-10-13T23:31:36.476Z,88.07
2017-10-13T23:34:05.131Z,88.14
2017-10-13T23:36:33.559Z,87.50
2017-10-13T23:39:01.950Z,88.40
2017-10-13T23:41:31.281Z,88.93
2017-10-13T23:44:00.568Z,88.99
2017-10-13T23:46:31.107Z,88.66
2017-10-13T23:49:01.601Z,88.83
2017-10-13T23:51:32.172Z,88.12
2017-10-13T23:54:04.859Z,87.97
2017-10-13T23:56:35.357Z,88.28
2017-10-13T23:59:04.439Z,87.26
